sensor_id;sensor_type;location;lat;lon;timestamp;temperature;humidity
23233;DHT22;11785;49.500;8.288;2024-02-16T00:00:24;11.20;97.90
23233;DHT22;11785;49.500;8.288;2024-02-16T00:02:50;11.20;97.90
23233;DHT22;11785;49.500;8.288;2024-02-16T00:05:15;11.30;97.70
23233;DHT22;11785;49.500;8.288;2024-02-16T00:07:41;11.30;97.60
23233;DHT22;11785;49.500;8.288;2024-02-16T00:10:07;11.30;97.50
23233;DHT22;11785;49.500;8.288;2024-02-16T00:12:34;11.30;97.50
23233;DHT22;11785;49.500;8.288;2024-02-16T00:15:01;11.40;97.20
23233;DHT22;11785;49.500;8.288;2024-02-16T00:17:27;11.40;97.20
23233;DHT22;11785;49.500;8.288;2024-02-16T00:19:53;11.30;97.50
23233;DHT22;11785;49.500;8.288;2024-02-16T00:22:19;11.30;97.60
23233;DHT22;11785;49.500;8.288;2024-02-16T00:24:44;11.30;97.60
23233;DHT22;11785;49.500;8.288;2024-02-16T00:27:10;11.20;98.00
23233;DHT22;11785;49.500;8.288;2024-02-16T00:29:36;11.20;98.10
23233;DHT22;11785;49.500;8.288;2024-02-16T00:32:04;11.20;98.20
23233;DHT22;11785;49.500;8.288;2024-02-16T00:34:29;11.20;98.30
23233;DHT22;11785;49.500;8.288;2024-02-16T00:36:55;11.20;98.40
23233;DHT22;11785;49.500;8.288;2024-02-16T00:39:20;11.20;98.50
23233;DHT22;11785;49.500;8.288;2024-02-16T00:41:47;11.10;98.80
23233;DHT22;11785;49.500;8.288;2024-02-16T00:44:12;11.10;98.90
23233;DHT22;11785;49.500;8.288;2024-02-16T00:46:38;11.10;99.30
23233;DHT22;11785;49.500;8.288;2024-02-16T00:49:03;11.10;99.10
23233;DHT22;11785;49.500;8.288;2024-02-16T00:51:29;11.10;99.20
23233;DHT22;11785;49.500;8.288;2024-02-16T00:53:55;11.10;99.10
23233;DHT22;11785;49.500;8.288;2024-02-16T00:56:21;11.20;98.90
23233;DHT22;11785;49.500;8.288;2024-02-16T00:58:46;11.20;98.90
23233;DHT22;11785;49.500;8.288;2024-02-16T01:01:12;11.20;98.90
23233;DHT22;11785;49.500;8.288;2024-02-16T01:03:40;11.10;99.20
23233;DHT22;11785;49.500;8.288;2024-02-16T01:06:06;11.20;99.00
23233;DHT22;11785;49.500;8.288;2024-02-16T01:08:34;11.10;99.30
23233;DHT22;11785;49.500;8.288;2024-02-16T01:10:59;11.20;99.20
23233;DHT22;11785;49.500;8.288;2024-02-16T01:13:25;11.20;99.10
23233;DHT22;11785;49.500;8.288;2024-02-16T01:15:51;11.20;99.20
23233;DHT22;11785;49.500;8.288;2024-02-16T01:18:17;11.20;99.20
23233;DHT22;11785;49.500;8.288;2024-02-16T01:20:42;11.20;99.20
23233;DHT22;11785;49.500;8.288;2024-02-16T01:23:08;11.20;99.20
23233;DHT22;11785;49.500;8.288;2024-02-16T01:25:33;11.20;99.10
23233;DHT22;11785;49.500;8.288;2024-02-16T01:27:59;11.20;99.10
23233;DHT22;11785;49.500;8.288;2024-02-16T01:30:25;11.30;98.80
23233;DHT22;11785;49.500;8.288;2024-02-16T01:32:50;11.30;98.80
23233;DHT22;11785;49.500;8.288;2024-02-16T01:35:16;11.30;98.70
23233;DHT22;11785;49.500;8.288;2024-02-16T01:37:42;11.30;98.70
23233;DHT22;11785;49.500;8.288;2024-02-16T01:40:09;11.40;98.40
23233;DHT22;11785;49.500;8.288;2024-02-16T01:42:47;11.30;98.60
23233;DHT22;11785;49.500;8.288;2024-02-16T01:45:13;11.30;98.70
23233;DHT22;11785;49.500;8.288;2024-02-16T01:47:39;11.30;98.90
23233;DHT22;11785;49.500;8.288;2024-02-16T01:50:07;11.20;99.10
23233;DHT22;11785;49.500;8.288;2024-02-16T01:52:33;11.20;99.20
23233;DHT22;11785;49.500;8.288;2024-02-16T01:55:01;11.20;99.30
23233;DHT22;11785;49.500;8.288;2024-02-16T01:57:29;11.20;99.40
23233;DHT22;11785;49.500;8.288;2024-02-16T01:59:55;11.10;99.70
23233;DHT22;11785;49.500;8.288;2024-02-16T02:02:20;11.10;99.70
23233;DHT22;11785;49.500;8.288;2024-02-16T02:04:46;11.10;99.80
23233;DHT22;11785;49.500;8.288;2024-02-16T02:07:15;11.10;99.90
23233;DHT22;11785;49.500;8.288;2024-02-16T02:09:41;11.00;99.90
23233;DHT22;11785;49.500;8.288;2024-02-16T02:12:08;11.00;99.90
23233;DHT22;11785;49.500;8.288;2024-02-16T02:14:35;11.00;99.90
23233;DHT22;11785;49.500;8.288;2024-02-16T02:17:01;11.00;99.90
23233;DHT22;11785;49.500;8.288;2024-02-16T02:19:26;11.00;99.90
23233;DHT22;11785;49.500;8.288;2024-02-16T02:21:52;11.00;99.90
23233;DHT22;11785;49.500;8.288;2024-02-16T02:24:17;10.90;99.90
23233;DHT22;11785;49.500;8.288;2024-02-16T02:26:43;10.90;99.90
23233;DHT22;11785;49.500;8.288;2024-02-16T02:29:09;11.00;99.90
23233;DHT22;11785;49.500;8.288;2024-02-16T02:31:34;11.00;99.90
23233;DHT22;11785;49.500;8.288;2024-02-16T02:34:00;11.00;99.90
23233;DHT22;11785;49.500;8.288;2024-02-16T02:36:26;11.00;99.90
23233;DHT22;11785;49.500;8.288;2024-02-16T02:38:51;11.00;99.90
23233;DHT22;11785;49.500;8.288;2024-02-16T02:41:17;11.00;99.90
23233;DHT22;11785;49.500;8.288;2024-02-16T02:43:45;11.00;99.90
23233;DHT22;11785;49.500;8.288;2024-02-16T02:46:15;11.00;99.90
23233;DHT22;11785;49.500;8.288;2024-02-16T02:48:43;10.90;99.90
23233;DHT22;11785;49.500;8.288;2024-02-16T02:51:08;10.90;99.90
23233;DHT22;11785;49.500;8.288;2024-02-16T02:53:35;10.90;99.90
23233;DHT22;11785;49.500;8.288;2024-02-16T02:56:01;10.90;99.90
23233;DHT22;11785;49.500;8.288;2024-02-16T02:58:27;10.90;99.90
23233;DHT22;11785;49.500;8.288;2024-02-16T03:00:53;10.90;99.90
23233;DHT22;11785;49.500;8.288;2024-02-16T03:03:19;10.90;99.90
23233;DHT22;11785;49.500;8.288;2024-02-16T03:05:45;10.90;99.90
23233;DHT22;11785;49.500;8.288;2024-02-16T03:08:11;10.90;99.90
23233;DHT22;11785;49.500;8.288;2024-02-16T03:10:37;10.90;99.90
23233;DHT22;11785;49.500;8.288;2024-02-16T03:13:03;10.90;99.90
23233;DHT22;11785;49.500;8.288;2024-02-16T03:15:29;10.90;99.90
23233;DHT22;11785;49.500;8.288;2024-02-16T03:17:55;10.90;99.90
23233;DHT22;11785;49.500;8.288;2024-02-16T03:20:21;10.90;99.90
23233;DHT22;11785;49.500;8.288;2024-02-16T03:22:47;10.90;99.90
23233;DHT22;11785;49.500;8.288;2024-02-16T03:25:12;10.90;99.90
23233;DHT22;11785;49.500;8.288;2024-02-16T03:27:38;10.90;99.90
23233;DHT22;11785;49.500;8.288;2024-02-16T03:30:04;10.80;99.90
23233;DHT22;11785;49.500;8.288;2024-02-16T03:32:31;10.80;99.90
23233;DHT22;11785;49.500;8.288;2024-02-16T03:34:57;10.70;99.90
23233;DHT22;11785;49.500;8.288;2024-02-16T03:37:24;10.60;99.90
23233;DHT22;11785;49.500;8.288;2024-02-16T03:39:49;10.50;99.90
23233;DHT22;11785;49.500;8.288;2024-02-16T03:42:16;10.40;99.90
23233;DHT22;11785;49.500;8.288;2024-02-16T03:44:43;10.40;99.90
23233;DHT22;11785;49.500;8.288;2024-02-16T03:47:09;10.30;99.90
23233;DHT22;11785;49.500;8.288;2024-02-16T03:49:35;10.20;99.90
23233;DHT22;11785;49.500;8.288;2024-02-16T03:52:01;10.20;99.90
23233;DHT22;11785;49.500;8.288;2024-02-16T03:54:27;10.10;99.90
23233;DHT22;11785;49.500;8.288;2024-02-16T03:56:55;10.10;99.90
23233;DHT22;11785;49.500;8.288;2024-02-16T03:59:21;10.10;99.90
23233;DHT22;11785;49.500;8.288;2024-02-16T04:01:47;10.00;99.90
23233;DHT22;11785;49.500;8.288;2024-02-16T04:04:12;10.00;99.90
23233;DHT22;11785;49.500;8.288;2024-02-16T04:06:39;10.10;99.90
23233;DHT22;11785;49.500;8.288;2024-02-16T04:09:05;10.10;99.90
23233;DHT22;11785;49.500;8.288;2024-02-16T04:11:34;10.10;99.90
23233;DHT22;11785;49.500;8.288;2024-02-16T04:14:00;10.10;99.90
23233;DHT22;11785;49.500;8.288;2024-02-16T04:16:26;10.20;99.90
23233;DHT22;11785;49.500;8.288;2024-02-16T04:18:52;10.20;99.90
23233;DHT22;11785;49.500;8.288;2024-02-16T04:21:17;10.20;99.90
23233;DHT22;11785;49.500;8.288;2024-02-16T04:23:44;10.20;99.90
23233;DHT22;11785;49.500;8.288;2024-02-16T04:26:09;10.20;99.90
23233;DHT22;11785;49.500;8.288;2024-02-16T04:28:35;10.10;99.90
23233;DHT22;11785;49.500;8.288;2024-02-16T04:31:01;10.10;99.90
23233;DHT22;11785;49.500;8.288;2024-02-16T04:33:26;10.20;99.90
23233;DHT22;11785;49.500;8.288;2024-02-16T04:35:52;10.20;99.90
23233;DHT22;11785;49.500;8.288;2024-02-16T04:38:17;10.20;99.90
23233;DHT22;11785;49.500;8.288;2024-02-16T04:40:43;10.20;99.90
23233;DHT22;11785;49.500;8.288;2024-02-16T04:43:09;10.20;99.90
23233;DHT22;11785;49.500;8.288;2024-02-16T04:45:35;10.20;99.90
23233;DHT22;11785;49.500;8.288;2024-02-16T04:48:04;10.20;99.90
23233;DHT22;11785;49.500;8.288;2024-02-16T04:50:32;10.10;99.90
23233;DHT22;11785;49.500;8.288;2024-02-16T04:52:58;10.10;99.90
23233;DHT22;11785;49.500;8.288;2024-02-16T04:55:23;10.10;99.90
23233;DHT22;11785;49.500;8.288;2024-02-16T04:57:49;10.10;99.90
23233;DHT22;11785;49.500;8.288;2024-02-16T05:00:15;10.10;99.90
23233;DHT22;11785;49.500;8.288;2024-02-16T05:02:40;10.20;99.90
23233;DHT22;11785;49.500;8.288;2024-02-16T05:05:06;10.10;99.90
23233;DHT22;11785;49.500;8.288;2024-02-16T05:07:32;10.10;99.90
23233;DHT22;11785;49.500;8.288;2024-02-16T05:09:58;10.20;99.90
23233;DHT22;11785;49.500;8.288;2024-02-16T05:12:24;10.10;99.90
23233;DHT22;11785;49.500;8.288;2024-02-16T05:14:51;10.10;99.90
23233;DHT22;11785;49.500;8.288;2024-02-16T05:17:17;10.10;99.90
23233;DHT22;11785;49.500;8.288;2024-02-16T05:19:43;10.20;99.90
23233;DHT22;11785;49.500;8.288;2024-02-16T05:22:09;10.20;99.90
23233;DHT22;11785;49.500;8.288;2024-02-16T05:24:35;10.10;99.90
23233;DHT22;11785;49.500;8.288;2024-02-16T05:27:01;10.10;99.90
23233;DHT22;11785;49.500;8.288;2024-02-16T05:29:27;10.10;99.90
23233;DHT22;11785;49.500;8.288;2024-02-16T05:31:53;10.10;99.90
23233;DHT22;11785;49.500;8.288;2024-02-16T05:34:18;10.10;99.90
23233;DHT22;11785;49.500;8.288;2024-02-16T05:36:44;10.10;99.90
23233;DHT22;11785;49.500;8.288;2024-02-16T05:39:10;10.10;99.90
23233;DHT22;11785;49.500;8.288;2024-02-16T05:41:46;10.00;99.90
23233;DHT22;11785;49.500;8.288;2024-02-16T05:44:12;10.00;99.90
23233;DHT22;11785;49.500;8.288;2024-02-16T05:46:37;10.00;99.90
23233;DHT22;11785;49.500;8.288;2024-02-16T05:49:04;9.90;99.90
23233;DHT22;11785;49.500;8.288;2024-02-16T05:51:37;9.80;99.90
23233;DHT22;11785;49.500;8.288;2024-02-16T05:54:03;9.70;99.90
23233;DHT22;11785;49.500;8.288;2024-02-16T05:56:28;9.60;99.90
23233;DHT22;11785;49.500;8.288;2024-02-16T05:58:54;9.50;99.90
23233;DHT22;11785;49.500;8.288;2024-02-16T06:01:19;9.40;99.90
23233;DHT22;11785;49.500;8.288;2024-02-16T06:03:45;9.30;99.90
23233;DHT22;11785;49.500;8.288;2024-02-16T06:06:11;9.20;99.90
23233;DHT22;11785;49.500;8.288;2024-02-16T06:08:36;9.10;99.90
23233;DHT22;11785;49.500;8.288;2024-02-16T06:11:02;9.10;99.90
23233;DHT22;11785;49.500;8.288;2024-02-16T06:13:28;9.10;99.90
23233;DHT22;11785;49.500;8.288;2024-02-16T06:15:54;9.10;99.90
23233;DHT22;11785;49.500;8.288;2024-02-16T06:18:21;9.00;99.90
23233;DHT22;11785;49.500;8.288;2024-02-16T06:20:47;9.00;99.90
23233;DHT22;11785;49.500;8.288;2024-02-16T06:23:12;8.90;99.90
23233;DHT22;11785;49.500;8.288;2024-02-16T06:25:38;8.80;99.90
23233;DHT22;11785;49.500;8.288;2024-02-16T06:28:03;8.80;99.90
23233;DHT22;11785;49.500;8.288;2024-02-16T06:30:30;8.80;99.90
23233;DHT22;11785;49.500;8.288;2024-02-16T06:32:56;8.80;99.90
23233;DHT22;11785;49.500;8.288;2024-02-16T06:35:24;8.90;99.90
23233;DHT22;11785;49.500;8.288;2024-02-16T06:37:52;8.90;99.90
23233;DHT22;11785;49.500;8.288;2024-02-16T06:40:19;8.90;99.90
23233;DHT22;11785;49.500;8.288;2024-02-16T06:42:44;8.90;99.90
23233;DHT22;11785;49.500;8.288;2024-02-16T06:45:11;9.00;99.90
23233;DHT22;11785;49.500;8.288;2024-02-16T06:47:37;9.00;99.90
23233;DHT22;11785;49.500;8.288;2024-02-16T06:50:02;8.90;99.90
23233;DHT22;11785;49.500;8.288;2024-02-16T06:52:28;9.00;99.90
23233;DHT22;11785;49.500;8.288;2024-02-16T06:54:54;9.00;99.90
23233;DHT22;11785;49.500;8.288;2024-02-16T06:57:19;9.00;99.90
23233;DHT22;11785;49.500;8.288;2024-02-16T06:59:46;9.10;99.90
23233;DHT22;11785;49.500;8.288;2024-02-16T07:02:11;9.20;99.90
23233;DHT22;11785;49.500;8.288;2024-02-16T07:04:40;9.20;99.90
23233;DHT22;11785;49.500;8.288;2024-02-16T07:07:05;9.30;99.90
23233;DHT22;11785;49.500;8.288;2024-02-16T07:09:32;9.30;99.90
23233;DHT22;11785;49.500;8.288;2024-02-16T07:11:57;9.30;99.90
23233;DHT22;11785;49.500;8.288;2024-02-16T07:14:24;9.40;99.90
23233;DHT22;11785;49.500;8.288;2024-02-16T07:16:50;9.40;99.90
23233;DHT22;11785;49.500;8.288;2024-02-16T07:19:15;9.50;99.90
23233;DHT22;11785;49.500;8.288;2024-02-16T07:21:41;9.60;99.90
23233;DHT22;11785;49.500;8.288;2024-02-16T07:24:07;9.60;99.90
23233;DHT22;11785;49.500;8.288;2024-02-16T07:26:33;9.70;99.90
23233;DHT22;11785;49.500;8.288;2024-02-16T07:28:59;9.80;99.90
23233;DHT22;11785;49.500;8.288;2024-02-16T07:31:30;9.90;99.90
23233;DHT22;11785;49.500;8.288;2024-02-16T07:33:55;10.00;99.90
23233;DHT22;11785;49.500;8.288;2024-02-16T07:36:22;10.10;99.90
23233;DHT22;11785;49.500;8.288;2024-02-16T07:38:47;10.20;99.90
23233;DHT22;11785;49.500;8.288;2024-02-16T07:41:13;10.30;99.90
23233;DHT22;11785;49.500;8.288;2024-02-16T07:43:39;10.40;99.90
23233;DHT22;11785;49.500;8.288;2024-02-16T07:46:04;10.50;99.90
23233;DHT22;11785;49.500;8.288;2024-02-16T07:48:30;10.60;99.90
23233;DHT22;11785;49.500;8.288;2024-02-16T07:50:55;10.70;99.90
23233;DHT22;11785;49.500;8.288;2024-02-16T07:53:24;10.80;99.90
23233;DHT22;11785;49.500;8.288;2024-02-16T07:55:50;10.90;99.90
23233;DHT22;11785;49.500;8.288;2024-02-16T07:58:15;11.20;99.90
23233;DHT22;11785;49.500;8.288;2024-02-16T08:00:41;11.20;99.90
23233;DHT22;11785;49.500;8.288;2024-02-16T08:03:06;11.30;99.90
23233;DHT22;11785;49.500;8.288;2024-02-16T08:05:32;11.40;99.90
23233;DHT22;11785;49.500;8.288;2024-02-16T08:07:57;11.50;99.90
23233;DHT22;11785;49.500;8.288;2024-02-16T08:10:23;11.60;99.60
23233;DHT22;11785;49.500;8.288;2024-02-16T08:12:50;11.70;99.20
23233;DHT22;11785;49.500;8.288;2024-02-16T08:15:16;11.70;98.90
23233;DHT22;11785;49.500;8.288;2024-02-16T08:17:48;11.70;99.00
23233;DHT22;11785;49.500;8.288;2024-02-16T08:20:15;11.80;98.70
23233;DHT22;11785;49.500;8.288;2024-02-16T08:22:40;11.80;98.40
23233;DHT22;11785;49.500;8.288;2024-02-16T08:25:06;11.80;98.10
23233;DHT22;11785;49.500;8.288;2024-02-16T08:27:32;11.90;97.80
23233;DHT22;11785;49.500;8.288;2024-02-16T08:29:58;12.00;97.20
23233;DHT22;11785;49.500;8.288;2024-02-16T08:32:24;12.00;97.10
23233;DHT22;11785;49.500;8.288;2024-02-16T08:34:52;12.10;96.50
23233;DHT22;11785;49.500;8.288;2024-02-16T08:37:17;12.20;95.90
23233;DHT22;11785;49.500;8.288;2024-02-16T08:39:43;12.30;95.50
23233;DHT22;11785;49.500;8.288;2024-02-16T08:42:09;12.40;95.00
23233;DHT22;11785;49.500;8.288;2024-02-16T08:44:36;12.50;94.10
23233;DHT22;11785;49.500;8.288;2024-02-16T08:47:02;12.60;93.90
23233;DHT22;11785;49.500;8.288;2024-02-16T08:49:28;12.80;93.20
23233;DHT22;11785;49.500;8.288;2024-02-16T08:51:54;12.90;92.40
23233;DHT22;11785;49.500;8.288;2024-02-16T08:54:22;12.90;91.70
23233;DHT22;11785;49.500;8.288;2024-02-16T08:56:48;12.80;92.10
23233;DHT22;11785;49.500;8.288;2024-02-16T08:59:14;12.80;92.00
23233;DHT22;11785;49.500;8.288;2024-02-16T09:01:39;12.90;91.60
23233;DHT22;11785;49.500;8.288;2024-02-16T09:04:05;13.00;91.20
23233;DHT22;11785;49.500;8.288;2024-02-16T09:06:31;13.20;90.80
23233;DHT22;11785;49.500;8.288;2024-02-16T09:08:57;13.30;90.00
23233;DHT22;11785;49.500;8.288;2024-02-16T09:11:23;13.40;88.40
23233;DHT22;11785;49.500;8.288;2024-02-16T09:13:48;13.50;87.70
23233;DHT22;11785;49.500;8.288;2024-02-16T09:16:14;13.40;87.90
23233;DHT22;11785;49.500;8.288;2024-02-16T09:18:40;13.30;88.10
23233;DHT22;11785;49.500;8.288;2024-02-16T09:21:06;13.20;89.00
23233;DHT22;11785;49.500;8.288;2024-02-16T09:23:33;13.20;89.00
23233;DHT22;11785;49.500;8.288;2024-02-16T09:25:59;13.20;89.10
23233;DHT22;11785;49.500;8.288;2024-02-16T09:28:25;13.40;87.40
23233;DHT22;11785;49.500;8.288;2024-02-16T09:30:51;13.70;84.50
23233;DHT22;11785;49.500;8.288;2024-02-16T09:33:17;13.80;82.50
23233;DHT22;11785;49.500;8.288;2024-02-16T09:35:43;13.90;80.30
23233;DHT22;11785;49.500;8.288;2024-02-16T09:38:08;14.00;79.80
23233;DHT22;11785;49.500;8.288;2024-02-16T09:40:36;14.10;78.70
23233;DHT22;11785;49.500;8.288;2024-02-16T09:43:01;14.20;77.50
23233;DHT22;11785;49.500;8.288;2024-02-16T09:45:28;14.30;76.30
23233;DHT22;11785;49.500;8.288;2024-02-16T09:47:54;14.30;75.80
23233;DHT22;11785;49.500;8.288;2024-02-16T09:50:20;14.40;74.40
23233;DHT22;11785;49.500;8.288;2024-02-16T09:52:48;14.50;72.90
23233;DHT22;11785;49.500;8.288;2024-02-16T09:55:15;14.60;72.10
23233;DHT22;11785;49.500;8.288;2024-02-16T09:57:41;14.90;70.00
23233;DHT22;11785;49.500;8.288;2024-02-16T10:00:09;15.10;67.60
23233;DHT22;11785;49.500;8.288;2024-02-16T10:02:41;15.10;66.80
23233;DHT22;11785;49.500;8.288;2024-02-16T10:05:19;15.20;66.60
23233;DHT22;11785;49.500;8.288;2024-02-16T10:07:45;15.20;66.20
23233;DHT22;11785;49.500;8.288;2024-02-16T10:10:40;15.20;65.90
23233;DHT22;11785;49.500;8.288;2024-02-16T10:13:06;15.30;65.70
23233;DHT22;11785;49.500;8.288;2024-02-16T10:15:33;15.30;65.20
23233;DHT22;11785;49.500;8.288;2024-02-16T10:18:04;15.40;64.20
23233;DHT22;11785;49.500;8.288;2024-02-16T10:20:31;15.40;64.40
23233;DHT22;11785;49.500;8.288;2024-02-16T10:23:10;15.50;63.10
23233;DHT22;11785;49.500;8.288;2024-02-16T10:25:37;15.50;62.80
23233;DHT22;11785;49.500;8.288;2024-02-16T10:28:09;15.60;61.40
23233;DHT22;11785;49.500;8.288;2024-02-16T10:30:37;15.60;61.90
23233;DHT22;11785;49.500;8.288;2024-02-16T10:33:07;15.70;61.10
23233;DHT22;11785;49.500;8.288;2024-02-16T10:35:36;15.80;60.00
23233;DHT22;11785;49.500;8.288;2024-02-16T10:38:03;15.90;59.90
23233;DHT22;11785;49.500;8.288;2024-02-16T10:40:37;16.10;59.90
23233;DHT22;11785;49.500;8.288;2024-02-16T10:43:04;16.30;59.80
23233;DHT22;11785;49.500;8.288;2024-02-16T10:45:33;16.50;59.70
23233;DHT22;11785;49.500;8.288;2024-02-16T10:48:00;16.70;59.60
23233;DHT22;11785;49.500;8.288;2024-02-16T10:50:25;16.90;59.60
23233;DHT22;11785;49.500;8.288;2024-02-16T10:52:52;17.30;59.50
23233;DHT22;11785;49.500;8.288;2024-02-16T10:55:18;17.60;59.30
23233;DHT22;11785;49.500;8.288;2024-02-16T10:57:45;17.80;59.30
23233;DHT22;11785;49.500;8.288;2024-02-16T11:00:10;17.90;59.20
23233;DHT22;11785;49.500;8.288;2024-02-16T11:02:58;18.10;59.20
23233;DHT22;11785;49.500;8.288;2024-02-16T11:05:36;18.80;59.00
23233;DHT22;11785;49.500;8.288;2024-02-16T11:08:02;18.60;58.90
23233;DHT22;11785;49.500;8.288;2024-02-16T11:10:28;18.70;58.90
23233;DHT22;11785;49.500;8.288;2024-02-16T11:12:54;18.70;58.90
23233;DHT22;11785;49.500;8.288;2024-02-16T11:15:28;18.80;58.80
23233;DHT22;11785;49.500;8.288;2024-02-16T11:17:56;19.10;58.70
23233;DHT22;11785;49.500;8.288;2024-02-16T11:20:25;19.80;58.50
23233;DHT22;11785;49.500;8.288;2024-02-16T11:22:51;20.20;58.40
23233;DHT22;11785;49.500;8.288;2024-02-16T11:25:17;20.50;58.30
23233;DHT22;11785;49.500;8.288;2024-02-16T11:27:43;20.10;58.30
23233;DHT22;11785;49.500;8.288;2024-02-16T11:30:12;19.90;58.30
23233;DHT22;11785;49.500;8.288;2024-02-16T11:32:37;19.70;58.40
23233;DHT22;11785;49.500;8.288;2024-02-16T11:35:07;19.50;58.40
23233;DHT22;11785;49.500;8.288;2024-02-16T11:37:33;18.90;58.60
23233;DHT22;11785;49.500;8.288;2024-02-16T11:39:59;18.60;58.70
23233;DHT22;11785;49.500;8.288;2024-02-16T11:42:25;18.50;58.70
23233;DHT22;11785;49.500;8.288;2024-02-16T11:44:52;18.40;58.70
23233;DHT22;11785;49.500;8.288;2024-02-16T11:47:22;18.20;58.80
23233;DHT22;11785;49.500;8.288;2024-02-16T11:50:04;18.10;58.80
23233;DHT22;11785;49.500;8.288;2024-02-16T11:52:30;18.00;58.90
23233;DHT22;11785;49.500;8.288;2024-02-16T11:54:56;18.10;58.90
23233;DHT22;11785;49.500;8.288;2024-02-16T11:57:22;18.40;58.80
23233;DHT22;11785;49.500;8.288;2024-02-16T11:59:49;18.70;58.70
23233;DHT22;11785;49.500;8.288;2024-02-16T12:02:17;19.00;58.60
23233;DHT22;11785;49.500;8.288;2024-02-16T12:04:47;19.60;58.40
23233;DHT22;11785;49.500;8.288;2024-02-16T12:07:13;20.10;58.30
23233;DHT22;11785;49.500;8.288;2024-02-16T12:09:42;20.30;58.20
23233;DHT22;11785;49.500;8.288;2024-02-16T12:12:07;20.00;58.20
23233;DHT22;11785;49.500;8.288;2024-02-16T12:14:35;19.80;58.30
23233;DHT22;11785;49.500;8.288;2024-02-16T12:17:00;20.00;58.20
23233;DHT22;11785;49.500;8.288;2024-02-16T12:19:26;20.10;58.20
23233;DHT22;11785;49.500;8.288;2024-02-16T12:21:52;19.80;58.20
23233;DHT22;11785;49.500;8.288;2024-02-16T12:24:19;19.80;58.30
23233;DHT22;11785;49.500;8.288;2024-02-16T12:26:44;19.90;58.20
23233;DHT22;11785;49.500;8.288;2024-02-16T12:29:10;20.40;58.10
23233;DHT22;11785;49.500;8.288;2024-02-16T12:31:43;20.40;58.10
23233;DHT22;11785;49.500;8.288;2024-02-16T12:34:09;20.50;58.10
23233;DHT22;11785;49.500;8.288;2024-02-16T12:36:38;20.50;58.10
23233;DHT22;11785;49.500;8.288;2024-02-16T12:39:05;20.10;58.20
23233;DHT22;11785;49.500;8.288;2024-02-16T12:41:34;19.70;58.30
23233;DHT22;11785;49.500;8.288;2024-02-16T12:44:02;19.80;58.30
23233;DHT22;11785;49.500;8.288;2024-02-16T12:46:28;19.80;58.20
23233;DHT22;11785;49.500;8.288;2024-02-16T12:48:54;19.70;58.30
23233;DHT22;11785;49.500;8.288;2024-02-16T12:51:19;19.80;58.30
23233;DHT22;11785;49.500;8.288;2024-02-16T12:53:45;20.00;58.20
23233;DHT22;11785;49.500;8.288;2024-02-16T12:56:11;20.20;58.10
23233;DHT22;11785;49.500;8.288;2024-02-16T12:58:37;20.60;58.00
23233;DHT22;11785;49.500;8.288;2024-02-16T13:01:03;21.80;57.70
23233;DHT22;11785;49.500;8.288;2024-02-16T13:03:35;23.20;57.30
23233;DHT22;11785;49.500;8.288;2024-02-16T13:06:01;23.50;57.10
23233;DHT22;11785;49.500;8.288;2024-02-16T13:08:27;23.40;57.10
23233;DHT22;11785;49.500;8.288;2024-02-16T13:10:52;23.20;57.10
23233;DHT22;11785;49.500;8.288;2024-02-16T13:13:18;22.20;57.40
23233;DHT22;11785;49.500;8.288;2024-02-16T13:15:43;20.70;57.80
23233;DHT22;11785;49.500;8.288;2024-02-16T13:18:09;20.10;58.00
23233;DHT22;11785;49.500;8.288;2024-02-16T13:20:35;19.40;58.20
23233;DHT22;11785;49.500;8.288;2024-02-16T13:23:01;18.80;58.30
23233;DHT22;11785;49.500;8.288;2024-02-16T13:25:26;18.30;58.50
23233;DHT22;11785;49.500;8.288;2024-02-16T13:27:52;18.10;58.60
23233;DHT22;11785;49.500;8.288;2024-02-16T13:30:17;18.00;58.60
23233;DHT22;11785;49.500;8.288;2024-02-16T13:32:43;17.80;58.70
23233;DHT22;11785;49.500;8.288;2024-02-16T13:35:09;17.60;58.70
23233;DHT22;11785;49.500;8.288;2024-02-16T13:37:34;17.60;58.80
23233;DHT22;11785;49.500;8.288;2024-02-16T13:40:00;17.60;58.70
23233;DHT22;11785;49.500;8.288;2024-02-16T13:42:29;17.50;58.80
23233;DHT22;11785;49.500;8.288;2024-02-16T13:44:56;17.50;58.80
23233;DHT22;11785;49.500;8.288;2024-02-16T13:47:23;17.20;59.00
23233;DHT22;11785;49.500;8.288;2024-02-16T13:49:49;16.80;59.10
23233;DHT22;11785;49.500;8.288;2024-02-16T13:52:16;16.40;59.30
23233;DHT22;11785;49.500;8.288;2024-02-16T13:54:41;16.30;59.30
23233;DHT22;11785;49.500;8.288;2024-02-16T13:57:07;16.20;59.40
23233;DHT22;11785;49.500;8.288;2024-02-16T13:59:32;16.10;59.40
23233;DHT22;11785;49.500;8.288;2024-02-16T14:01:59;16.10;59.40
23233;DHT22;11785;49.500;8.288;2024-02-16T14:04:26;16.10;59.40
23233;DHT22;11785;49.500;8.288;2024-02-16T14:06:52;16.10;59.40
23233;DHT22;11785;49.500;8.288;2024-02-16T14:09:18;16.10;59.40
23233;DHT22;11785;49.500;8.288;2024-02-16T14:11:47;16.00;59.50
23233;DHT22;11785;49.500;8.288;2024-02-16T14:14:12;15.90;59.60
23233;DHT22;11785;49.500;8.288;2024-02-16T14:16:38;15.90;59.60
23233;DHT22;11785;49.500;8.288;2024-02-16T14:19:04;15.90;59.60
23233;DHT22;11785;49.500;8.288;2024-02-16T14:21:29;15.90;59.60
23233;DHT22;11785;49.500;8.288;2024-02-16T14:23:55;15.90;59.60
23233;DHT22;11785;49.500;8.288;2024-02-16T14:26:20;15.80;59.70
23233;DHT22;11785;49.500;8.288;2024-02-16T14:28:46;15.70;59.70
23233;DHT22;11785;49.500;8.288;2024-02-16T14:31:12;15.60;59.70
23233;DHT22;11785;49.500;8.288;2024-02-16T14:33:39;15.40;59.80
23233;DHT22;11785;49.500;8.288;2024-02-16T14:36:05;15.30;59.90
23233;DHT22;11785;49.500;8.288;2024-02-16T14:38:34;15.20;61.10
23233;DHT22;11785;49.500;8.288;2024-02-16T14:40:59;15.10;62.20
23233;DHT22;11785;49.500;8.288;2024-02-16T14:43:31;15.10;63.50
23233;DHT22;11785;49.500;8.288;2024-02-16T14:46:01;15.00;65.90
23233;DHT22;11785;49.500;8.288;2024-02-16T14:48:29;14.90;67.50
23233;DHT22;11785;49.500;8.288;2024-02-16T14:50:55;14.80;69.90
23233;DHT22;11785;49.500;8.288;2024-02-16T14:53:20;14.80;70.90
23233;DHT22;11785;49.500;8.288;2024-02-16T14:55:47;14.80;71.90
23233;DHT22;11785;49.500;8.288;2024-02-16T14:58:13;14.70;73.10
23233;DHT22;11785;49.500;8.288;2024-02-16T15:00:38;14.70;74.20
23233;DHT22;11785;49.500;8.288;2024-02-16T15:03:04;14.60;75.60
23233;DHT22;11785;49.500;8.288;2024-02-16T15:05:30;14.60;77.10
23233;DHT22;11785;49.500;8.288;2024-02-16T15:07:56;14.50;79.20
23233;DHT22;11785;49.500;8.288;2024-02-16T15:10:21;14.50;80.10
23233;DHT22;11785;49.500;8.288;2024-02-16T15:12:47;14.50;81.10
23233;DHT22;11785;49.500;8.288;2024-02-16T15:15:12;14.50;82.30
23233;DHT22;11785;49.500;8.288;2024-02-16T15:17:39;14.50;83.70
23233;DHT22;11785;49.500;8.288;2024-02-16T15:20:06;14.40;84.60
23233;DHT22;11785;49.500;8.288;2024-02-16T15:22:35;14.40;85.80
23233;DHT22;11785;49.500;8.288;2024-02-16T15:25:00;14.40;86.30
23233;DHT22;11785;49.500;8.288;2024-02-16T15:27:26;14.30;87.60